Asherville, Indiana
Current Conditions -  °F | °C
As of 5:53 PM on Wednesday 17 Dec 2014 (Local Time) from KHUF Reporting Station
Overcast Overcast  
Wind Chill: 16°   Ceiling: 1300
Heat Index: 25°   Visibility: 10mi
Dew Point: 19°   Wind: 9mph
Humidity: 78%   Direction: 330°NNW
Pressure: 30.3"   Gusts: NA
Location:  39.5158°N, 87.1262°W
Report Text: KHUF 172253Z 33008KT 10SM OVC013 M04/M07 A3030 RMK AO2 SLP267 T10391072
Loading
Personal Weather Stations






























Interactive Weather Map New forecast layout! Learn more

10-Day Weather Forecast

Advertisements
Track Severe Weather on mobile